createdAt,value
2022-10-14T00:01:12.312Z,3.43
2022-10-14T00:03:41.207Z,3.70
2022-10-14T00:06:11.810Z,3.67
2022-10-14T00:08:42.117Z,4.47
2022-10-14T00:11:12.753Z,3.20
2022-10-14T00:13:41.073Z,3.53
2022-10-14T00:16:17.991Z,2.77
2022-10-14T00:18:46.185Z,3.10
2022-10-14T00:21:14.530Z,3.23
2022-10-14T00:23:44.261Z,3.50
2022-10-14T00:26:17.519Z,3.10
2022-10-14T00:28:45.686Z,3.70
2022-10-14T00:31:14.023Z,3.27
2022-10-14T00:33:42.291Z,3.07
2022-10-14T00:36:13.846Z,3.20
2022-10-14T00:38:43.478Z,3.23
2022-10-14T00:41:13.545Z,2.83
2022-10-14T00:43:58.564Z,2.93
2022-10-14T00:46:27.897Z,3.17
2022-10-14T00:48:56.920Z,3.03
2022-10-14T00:51:25.207Z,3.20
2022-10-14T00:53:54.987Z,3.77
2022-10-14T00:56:26.405Z,3.60
2022-10-14T00:58:54.755Z,3.10
2022-10-14T01:01:22.911Z,3.50
2022-10-14T01:03:51.017Z,2.87
2022-10-14T01:06:31.878Z,3.17
2022-10-14T01:09:08.161Z,3.30
2022-10-14T01:11:41.912Z,4.23
2022-10-14T01:14:20.856Z,4.10
2022-10-14T01:16:59.121Z,4.50
2022-10-14T01:19:50.701Z,5.10
2022-10-14T01:22:24.060Z,6.27
2022-10-14T01:25:07.244Z,6.90
2022-10-14T01:27:56.656Z,6.37
2022-10-14T01:30:29.809Z,5.13
2022-10-14T01:33:08.887Z,5.40
2022-10-14T01:36:00.239Z,5.00
2022-10-14T01:38:32.969Z,4.70
2022-10-14T01:41:05.820Z,4.87
2022-10-14T01:43:35.497Z,5.00
2022-10-14T01:46:07.388Z,5.37
2022-10-14T01:48:38.308Z,5.73
2022-10-14T01:51:12.519Z,6.10
2022-10-14T01:53:44.955Z,6.23
2022-10-14T01:56:14.757Z,6.53
2022-10-14T01:58:44.864Z,7.90
2022-10-14T02:01:14.335Z,8.80
2022-10-14T02:03:44.427Z,14.10
2022-10-14T02:06:16.784Z,11.87
2022-10-14T02:09:02.942Z,11.70
2022-10-14T02:11:39.529Z,10.27
2022-10-14T02:14:19.874Z,9.73
2022-10-14T02:16:56.149Z,9.30
2022-10-14T02:19:30.734Z,8.97
2022-10-14T02:22:04.677Z,10.37
2022-10-14T02:24:37.101Z,9.07
2022-10-14T02:27:10.358Z,10.07
2022-10-14T02:29:46.925Z,12.67
2022-10-14T02:32:19.989Z,15.23
2022-10-14T02:34:52.986Z,15.30
2022-10-14T02:37:22.546Z,13.93
2022-10-14T02:39:55.260Z,12.73
2022-10-14T02:42:23.690Z,11.97
2022-10-14T02:44:56.164Z,11.57
2022-10-14T02:47:26.111Z,11.40
2022-10-14T02:49:54.870Z,11.80
2022-10-14T02:52:23.423Z,12.10
2022-10-14T02:54:51.818Z,12.77
2022-10-14T02:57:19.966Z,13.57
2022-10-14T02:59:48.407Z,11.70
2022-10-14T03:02:16.645Z,11.03
2022-10-14T03:04:46.129Z,8.80
2022-10-14T03:07:14.279Z,7.10
2022-10-14T03:09:42.462Z,5.47
2022-10-14T03:12:10.566Z,6.30
2022-10-14T03:14:38.750Z,6.20
2022-10-14T03:17:06.898Z,5.97
2022-10-14T03:19:35.038Z,6.20
2022-10-14T03:22:04.565Z,5.30
2022-10-14T03:24:32.874Z,6.60
2022-10-14T03:27:01.024Z,6.30
2022-10-14T03:29:29.122Z,6.43
2022-10-14T03:31:57.482Z,5.70
2022-10-14T03:34:25.623Z,6.07
2022-10-14T03:36:54.130Z,5.50
2022-10-14T03:39:23.570Z,4.40
2022-10-14T03:41:51.691Z,5.17
2022-10-14T03:44:19.731Z,5.40
2022-10-14T03:46:47.848Z,5.40
2022-10-14T03:49:15.891Z,5.83
2022-10-14T03:51:44.070Z,5.70
2022-10-14T03:54:12.157Z,6.63
2022-10-14T03:56:41.702Z,6.03
2022-10-14T03:59:09.927Z,6.00
2022-10-14T04:01:38.138Z,5.80
2022-10-14T04:04:06.341Z,4.97
2022-10-14T04:06:34.449Z,5.87
2022-10-14T04:09:02.505Z,5.67
2022-10-14T04:11:30.591Z,5.70
2022-10-14T04:14:01.155Z,4.73
2022-10-14T04:16:29.315Z,4.63
2022-10-14T04:18:58.631Z,4.70
2022-10-14T04:21:26.715Z,4.00
2022-10-14T04:23:54.852Z,4.30
2022-10-14T04:26:22.999Z,4.27
2022-10-14T04:28:51.189Z,4.50
2022-10-14T04:31:22.683Z,5.07
2022-10-14T04:33:50.778Z,4.40
2022-10-14T04:36:18.925Z,4.20
2022-10-14T04:38:46.968Z,4.47
2022-10-14T04:41:15.040Z,4.60
2022-10-14T04:43:43.194Z,4.23
2022-10-14T04:46:11.216Z,4.87
2022-10-14T04:48:40.687Z,7.60
2022-10-14T04:51:08.767Z,9.50
2022-10-14T04:53:37.278Z,11.70
2022-10-14T04:56:05.743Z,9.47
2022-10-14T04:58:34.037Z,8.00
2022-10-14T05:01:02.193Z,7.30
2022-10-14T05:03:30.338Z,6.63
2022-10-14T05:05:59.944Z,8.03
2022-10-14T05:08:28.068Z,7.27
2022-10-14T05:10:56.165Z,8.80
2022-10-14T05:13:24.268Z,11.87
2022-10-14T05:15:52.723Z,11.10
2022-10-14T05:18:20.837Z,10.60
2022-10-14T05:20:49.295Z,10.80
2022-10-14T05:23:19.391Z,8.70
2022-10-14T05:25:47.565Z,8.70
2022-10-14T05:28:15.774Z,7.03
2022-10-14T05:30:44.159Z,9.53
2022-10-14T05:33:12.558Z,8.67
2022-10-14T05:35:58.081Z,9.23
2022-10-14T05:38:28.507Z,8.93
2022-10-14T05:40:58.128Z,10.00
2022-10-14T05:43:31.788Z,8.20
2022-10-14T05:46:00.970Z,9.30
2022-10-14T05:48:29.039Z,7.67
2022-10-14T05:51:01.490Z,8.00
2022-10-14T05:53:32.664Z,7.30
2022-10-14T05:56:05.860Z,7.13
2022-10-14T05:58:34.399Z,7.77
2022-10-14T06:01:03.871Z,6.37
2022-10-14T06:03:32.496Z,6.60
2022-10-14T06:06:01.036Z,6.50
2022-10-14T06:08:30.579Z,7.13
2022-10-14T06:10:58.723Z,6.20
2022-10-14T06:13:26.877Z,6.63
2022-10-14T06:15:55.262Z,6.93
2022-10-14T06:18:23.836Z,6.90
2022-10-14T06:20:55.515Z,6.13
2022-10-14T06:23:23.642Z,6.33
2022-10-14T06:25:53.690Z,6.63
2022-10-14T06:28:22.057Z,6.43
2022-10-14T06:30:54.227Z,7.07
2022-10-14T06:33:24.441Z,6.93
2022-10-14T06:35:53.213Z,6.50
2022-10-14T06:38:21.363Z,6.67
2022-10-14T06:40:53.086Z,6.80
2022-10-14T06:43:21.516Z,6.10
2022-10-14T06:45:50.515Z,6.63
2022-10-14T06:48:18.613Z,6.17
2022-10-14T06:50:50.198Z,6.17
2022-10-14T06:53:18.489Z,6.70
2022-10-14T06:55:46.747Z,6.03
2022-10-14T06:58:16.602Z,5.80
2022-10-14T07:00:48.105Z,6.37
2022-10-14T07:03:16.534Z,6.10
2022-10-14T07:05:44.646Z,5.43
2022-10-14T07:08:15.281Z,5.30
2022-10-14T07:10:44.085Z,5.23
2022-10-14T07:13:12.255Z,6.13
2022-10-14T07:15:41.976Z,6.17
2022-10-14T07:18:10.175Z,6.00
2022-10-14T07:20:38.255Z,5.67
2022-10-14T07:23:06.436Z,6.07
2022-10-14T07:25:34.616Z,5.50
2022-10-14T07:28:02.719Z,5.70
2022-10-14T07:30:31.138Z,5.50
2022-10-14T07:33:01.798Z,5.87
2022-10-14T07:35:30.229Z,5.70
2022-10-14T07:38:00.337Z,6.50
2022-10-14T07:40:28.705Z,5.50
2022-10-14T07:42:57.458Z,5.30
2022-10-14T07:45:25.649Z,5.77
2022-10-14T07:47:53.805Z,5.40
2022-10-14T07:50:23.450Z,7.20
2022-10-14T07:52:51.606Z,5.70
2022-10-14T07:55:19.708Z,6.83
2022-10-14T07:57:47.845Z,6.37
2022-10-14T08:00:16.307Z,5.37
2022-10-14T08:02:44.507Z,5.60
2022-10-14T08:05:36.522Z,5.33
2022-10-14T08:08:02.107Z,6.03
2022-10-14T08:10:32.270Z,5.63
2022-10-14T08:13:00.759Z,5.27
2022-10-14T08:15:30.456Z,5.63
2022-10-14T08:17:58.584Z,5.50
2022-10-14T08:20:26.808Z,5.00
2022-10-14T08:22:57.503Z,5.03
2022-10-14T08:25:27.538Z,5.67
2022-10-14T08:27:57.567Z,4.90
2022-10-14T08:30:26.005Z,5.43
2022-10-14T08:32:54.103Z,5.80
2022-10-14T08:35:22.214Z,4.57
2022-10-14T08:37:58.189Z,4.93
2022-10-14T08:40:29.721Z,5.00
2022-10-14T08:43:02.784Z,4.70
2022-10-14T08:45:34.925Z,4.47
2022-10-14T08:48:12.391Z,5.40
2022-10-14T08:50:45.911Z,5.10
2022-10-14T08:53:17.436Z,4.90
2022-10-14T08:55:49.532Z,5.53
2022-10-14T08:58:23.934Z,5.20
2022-10-14T09:00:56.605Z,5.20
2022-10-14T09:03:33.409Z,4.57
2022-10-14T09:06:04.882Z,4.20
2022-10-14T09:08:38.574Z,5.00
2022-10-14T09:11:13.568Z,4.20
2022-10-14T09:13:44.342Z,4.90
2022-10-14T09:16:20.192Z,4.23
2022-10-14T09:18:54.641Z,4.60
2022-10-14T09:21:51.713Z,4.70
2022-10-14T09:24:22.256Z,5.20
2022-10-14T09:29:30.824Z,4.13
2022-10-14T09:32:01.105Z,5.23
2022-10-14T09:34:35.787Z,4.60
2022-10-14T09:37:22.591Z,4.70
2022-10-14T09:39:52.251Z,4.73
2022-10-14T09:42:27.475Z,5.90
2022-10-14T09:45:08.844Z,4.40
2022-10-14T09:47:45.314Z,4.70
2022-10-14T09:50:23.005Z,4.23
2022-10-14T09:52:54.300Z,3.80
2022-10-14T09:55:25.281Z,4.00
2022-10-14T09:58:05.543Z,4.40
2022-10-14T10:00:35.714Z,4.40
2022-10-14T10:03:03.779Z,4.30
2022-10-14T10:05:33.769Z,4.10
2022-10-14T10:08:04.976Z,4.93
2022-10-14T10:10:35.334Z,4.20
2022-10-14T10:13:06.012Z,4.67
2022-10-14T10:15:34.595Z,4.57
2022-10-14T10:18:04.358Z,4.67
2022-10-14T10:20:36.124Z,4.43
2022-10-14T10:23:25.626Z,4.70
2022-10-14T10:25:54.793Z,4.20
2022-10-14T10:28:32.150Z,4.43
2022-10-14T10:31:08.140Z,4.43
2022-10-14T10:33:44.802Z,4.37
2022-10-14T10:36:23.186Z,4.60
2022-10-14T10:39:00.022Z,4.57
2022-10-14T10:41:58.549Z,4.03
2022-10-14T10:44:54.437Z,4.60
2022-10-14T10:47:41.914Z,3.67
2022-10-14T10:50:31.705Z,3.93
2022-10-14T10:53:22.951Z,3.90
2022-10-14T10:56:08.071Z,3.77
2022-10-14T10:58:44.365Z,4.53
2022-10-14T11:01:36.825Z,3.63
2022-10-14T11:04:31.093Z,5.20
2022-10-14T11:07:29.717Z,3.77
2022-10-14T11:10:29.406Z,4.10
2022-10-14T11:13:01.281Z,3.97
2022-10-14T11:15:43.228Z,4.10
2022-10-14T11:18:20.727Z,5.40
2022-10-14T11:21:11.173Z,3.70
2022-10-14T11:23:49.339Z,4.70
2022-10-14T11:29:10.741Z,4.00
2022-10-14T11:31:51.055Z,4.10
2022-10-14T11:34:39.428Z,4.77
2022-10-14T11:37:19.663Z,4.40
2022-10-14T11:39:50.650Z,3.70
2022-10-14T11:42:38.723Z,4.47
2022-10-14T11:45:30.136Z,4.20
2022-10-14T11:48:07.396Z,3.70
2022-10-14T11:50:41.811Z,4.70
2022-10-14T11:53:18.021Z,3.90
2022-10-14T11:55:53.130Z,4.10
2022-10-14T11:58:25.537Z,4.40
2022-10-14T12:01:01.191Z,3.33
2022-10-14T12:03:44.441Z,3.70
2022-10-14T12:06:19.272Z,3.60
2022-10-14T12:08:51.723Z,3.70
2022-10-14T12:11:29.727Z,3.77
2022-10-14T12:14:06.805Z,4.40
2022-10-14T12:16:35.217Z,3.60
2022-10-14T12:19:03.411Z,4.17
2022-10-14T12:21:39.993Z,4.03
2022-10-14T12:24:14.526Z,4.47
2022-10-14T12:26:51.720Z,3.67
2022-10-14T12:29:22.770Z,3.77
2022-10-14T12:32:07.370Z,4.10
2022-10-14T12:34:37.733Z,4.60
2022-10-14T12:37:52.609Z,3.90
2022-10-14T12:40:27.551Z,4.30
2022-10-14T12:43:14.143Z,3.87
2022-10-14T12:45:51.810Z,3.70
2022-10-14T12:48:23.886Z,4.03
2022-10-14T12:50:57.365Z,3.30
2022-10-14T12:53:27.908Z,4.10
2022-10-14T12:55:59.787Z,3.80
2022-10-14T12:58:35.570Z,4.10
2022-10-14T13:01:15.741Z,3.67
2022-10-14T13:03:46.767Z,3.77
2022-10-14T13:06:31.031Z,3.53
2022-10-14T13:09:35.244Z,4.40
2022-10-14T13:12:42.205Z,3.60
2022-10-14T13:15:59.678Z,3.80
2022-10-14T13:19:01.377Z,4.10
2022-10-14T13:21:32.385Z,4.27
2022-10-14T13:24:02.872Z,3.77
2022-10-14T13:26:39.391Z,3.57
2022-10-14T13:29:18.075Z,3.67
2022-10-14T13:31:54.686Z,3.30
2022-10-14T13:34:34.830Z,3.20
2022-10-14T13:37:18.514Z,3.40
2022-10-14T13:39:47.110Z,3.20
2022-10-14T13:42:20.222Z,3.40
2022-10-14T13:44:50.124Z,3.63
2022-10-14T13:47:23.457Z,3.73
2022-10-14T13:49:52.679Z,4.00
2022-10-14T13:52:25.807Z,4.07
2022-10-14T13:55:14.193Z,3.70
2022-10-14T13:58:07.862Z,3.03
2022-10-14T14:00:42.020Z,3.30
2022-10-14T14:03:21.524Z,3.27
2022-10-14T14:05:50.651Z,4.00
2022-10-14T14:08:41.971Z,4.17
2022-10-14T14:11:16.930Z,3.50
2022-10-14T14:13:55.809Z,3.37
2022-10-14T14:16:32.616Z,3.90
2022-10-14T14:19:08.668Z,3.33
2022-10-14T14:21:37.683Z,3.80
2022-10-14T14:24:17.186Z,3.47
2022-10-14T14:26:45.795Z,4.10
2022-10-14T14:29:18.991Z,3.73
2022-10-14T14:34:40.077Z,4.10
2022-10-14T14:37:36.792Z,3.90
2022-10-14T14:39:58.478Z,4.13
2022-10-14T14:42:28.600Z,4.07
2022-10-14T14:45:00.211Z,3.50
2022-10-14T14:47:31.487Z,5.03
2022-10-14T14:52:49.827Z,4.03
2022-10-14T14:55:41.682Z,4.40
2022-10-14T14:58:22.740Z,4.17
2022-10-14T15:00:51.771Z,3.97
2022-10-14T15:03:21.874Z,3.63
2022-10-14T15:05:57.256Z,3.90
2022-10-14T15:08:27.530Z,3.80
2022-10-14T15:10:58.037Z,4.40
2022-10-14T15:13:42.259Z,4.20
2022-10-14T15:16:10.698Z,3.80
2022-10-14T15:18:43.481Z,3.53
2022-10-14T15:21:20.253Z,3.80
2022-10-14T15:24:03.402Z,4.63
2022-10-14T15:26:34.703Z,3.93
2022-10-14T15:29:13.432Z,5.03
2022-10-14T15:31:43.036Z,4.33
2022-10-14T15:34:21.124Z,4.17
2022-10-14T15:36:52.285Z,3.40
2022-10-14T15:39:21.009Z,4.23
2022-10-14T15:41:49.279Z,3.33
2022-10-14T15:44:17.432Z,4.00
2022-10-14T15:47:04.857Z,4.33
2022-10-14T15:49:40.227Z,4.10
2022-10-14T15:52:08.630Z,3.90
2022-10-14T15:54:36.791Z,5.10
2022-10-14T15:57:05.842Z,4.07
2022-10-14T15:59:34.049Z,3.97
2022-10-14T16:02:02.320Z,4.03
2022-10-14T16:04:30.430Z,4.00
2022-10-14T16:06:59.898Z,4.33
2022-10-14T16:09:29.147Z,4.40
2022-10-14T16:12:00.439Z,4.10
2022-10-14T16:14:29.038Z,4.00
2022-10-14T16:16:57.702Z,4.07
2022-10-14T16:19:28.164Z,3.97
2022-10-14T16:21:56.264Z,4.23
2022-10-14T16:24:26.701Z,3.93
2022-10-14T16:26:55.446Z,3.33
2022-10-14T16:29:23.687Z,4.80
2022-10-14T16:31:52.477Z,4.23
2022-10-14T16:34:21.639Z,4.10
2022-10-14T16:36:50.629Z,4.03
2022-10-14T16:39:20.463Z,4.10
2022-10-14T16:41:50.434Z,3.47
2022-10-14T16:44:27.729Z,4.80
2022-10-14T16:47:15.141Z,4.30
2022-10-14T16:49:45.413Z,4.27
2022-10-14T16:52:13.805Z,4.30
2022-10-14T16:54:42.079Z,5.30
2022-10-14T16:57:12.422Z,4.73
2022-10-14T16:59:40.939Z,4.10
2022-10-14T17:02:11.176Z,4.10
2022-10-14T17:04:41.193Z,4.30
2022-10-14T17:07:09.554Z,3.73
2022-10-14T17:09:39.468Z,4.30
2022-10-14T17:12:12.953Z,3.93
2022-10-14T17:14:50.800Z,3.67
2022-10-14T17:17:19.605Z,4.30
2022-10-14T17:19:48.679Z,4.13
2022-10-14T17:22:17.761Z,3.90
2022-10-14T17:24:45.889Z,3.87
2022-10-14T17:27:14.166Z,4.17
2022-10-14T17:29:42.742Z,4.03
2022-10-14T17:32:12.458Z,4.23
2022-10-14T17:34:40.544Z,3.50
2022-10-14T17:39:42.222Z,3.40
2022-10-14T17:42:10.531Z,4.73
2022-10-14T17:44:43.418Z,3.83
2022-10-14T17:47:13.357Z,4.10
2022-10-14T17:49:41.526Z,4.13
2022-10-14T17:52:09.600Z,3.83
2022-10-14T17:54:37.655Z,3.83
2022-10-14T17:57:05.823Z,4.20
2022-10-14T17:59:34.896Z,3.77
2022-10-14T18:02:03.788Z,3.40
2022-10-14T18:04:33.891Z,3.90
2022-10-14T18:07:02.418Z,4.70
2022-10-14T18:09:30.709Z,3.80
2022-10-14T18:12:14.264Z,4.20
2022-10-14T18:14:43.198Z,3.50
2022-10-14T18:17:12.878Z,4.10
2022-10-14T18:19:46.132Z,3.77
2022-10-14T18:22:18.245Z,3.60
2022-10-14T18:24:46.330Z,3.63
2022-10-14T18:27:14.450Z,3.80
2022-10-14T18:29:42.823Z,3.77
2022-10-14T18:32:10.863Z,3.77
2022-10-14T18:34:39.231Z,4.00
2022-10-14T18:37:08.956Z,3.70
2022-10-14T18:39:37.185Z,3.30
2022-10-14T18:42:05.368Z,4.00
2022-10-14T18:44:33.547Z,3.60
2022-10-14T18:47:01.631Z,3.40
2022-10-14T18:49:29.936Z,3.00
2022-10-14T18:51:58.065Z,3.27
2022-10-14T18:54:28.243Z,3.67
2022-10-14T18:56:56.330Z,2.90
2022-10-14T18:59:25.125Z,3.20
2022-10-14T19:01:53.943Z,3.37
2022-10-14T19:04:24.123Z,3.60
2022-10-14T19:06:52.396Z,3.30
2022-10-14T19:09:24.714Z,3.03
2022-10-14T19:11:54.350Z,3.23
2022-10-14T19:14:22.975Z,3.50
2022-10-14T19:16:51.288Z,2.90
2022-10-14T19:19:20.977Z,2.93
2022-10-14T19:21:54.257Z,3.70
2022-10-14T19:24:22.717Z,3.30
2022-10-14T19:26:51.068Z,3.70
2022-10-14T19:29:20.587Z,3.17
2022-10-14T19:31:51.731Z,2.80
2022-10-14T19:34:20.066Z,3.13
2022-10-14T19:36:48.230Z,3.17
2022-10-14T19:39:18.933Z,3.40
2022-10-14T19:41:47.544Z,3.13
2022-10-14T19:44:17.226Z,3.30
2022-10-14T19:46:46.906Z,2.83
2022-10-14T19:49:16.530Z,3.10
2022-10-14T19:51:44.920Z,3.70
2022-10-14T19:54:14.611Z,2.70
2022-10-14T19:56:42.767Z,2.73
2022-10-14T19:59:11.135Z,2.57
2022-10-14T20:01:39.271Z,3.20
2022-10-14T20:04:09.009Z,3.10
2022-10-14T20:06:40.115Z,2.97
2022-10-14T20:09:09.295Z,2.33
2022-10-14T20:11:37.364Z,3.03
2022-10-14T20:14:06.030Z,3.03
2022-10-14T20:16:34.354Z,2.80
2022-10-14T20:19:02.455Z,3.77
2022-10-14T20:21:31.955Z,2.83
2022-10-14T20:24:00.609Z,4.60
2022-10-14T20:26:28.828Z,2.90
2022-10-14T20:28:57.057Z,2.80
2022-10-14T20:31:26.454Z,2.30
2022-10-14T20:33:56.774Z,2.37
2022-10-14T20:36:25.015Z,2.40
2022-10-14T20:38:54.519Z,3.10
2022-10-14T20:41:24.605Z,2.60
2022-10-14T20:43:54.041Z,2.50
2022-10-14T20:46:23.351Z,3.00
2022-10-14T20:48:55.265Z,2.40
2022-10-14T20:51:23.839Z,3.03
2022-10-14T20:54:00.373Z,2.10
2022-10-14T20:56:34.226Z,2.87
2022-10-14T20:59:04.539Z,3.17
2022-10-14T21:01:33.625Z,2.80
2022-10-14T21:04:03.003Z,2.30
2022-10-14T21:06:31.344Z,2.27
2022-10-14T21:08:59.748Z,2.60
2022-10-14T21:11:29.020Z,2.80
2022-10-14T21:14:00.373Z,2.70
2022-10-14T21:16:30.878Z,2.50
2022-10-14T21:19:00.481Z,2.23
2022-10-14T21:21:30.374Z,2.43
2022-10-14T21:23:59.975Z,3.27
2022-10-14T21:26:28.560Z,3.03
2022-10-14T21:28:58.113Z,2.30
2022-10-14T21:31:26.361Z,2.37
2022-10-14T21:34:04.175Z,2.87
2022-10-14T21:36:33.998Z,2.50
2022-10-14T21:39:02.071Z,2.80
2022-10-14T21:41:30.162Z,3.40
2022-10-14T21:43:59.755Z,2.60
2022-10-14T21:46:28.421Z,2.47
2022-10-14T21:48:58.514Z,2.53
2022-10-14T21:51:28.087Z,2.70
2022-10-14T21:53:56.826Z,2.47
2022-10-14T21:56:25.792Z,2.70
2022-10-14T21:58:54.496Z,2.40
2022-10-14T22:01:26.198Z,2.67
2022-10-14T22:03:55.521Z,2.50
2022-10-14T22:06:24.425Z,2.80
2022-10-14T22:08:55.363Z,2.50
2022-10-14T22:11:26.464Z,2.47
2022-10-14T22:13:55.980Z,2.20
2022-10-14T22:16:26.065Z,2.33
2022-10-14T22:18:54.770Z,2.60
2022-10-14T22:21:24.805Z,3.10
2022-10-14T22:23:53.235Z,2.33
2022-10-14T22:26:22.992Z,2.97
2022-10-14T22:28:51.180Z,2.33
2022-10-14T22:31:22.125Z,3.73
2022-10-14T22:33:51.601Z,2.47
2022-10-14T22:36:23.841Z,2.37
2022-10-14T22:38:53.691Z,2.80
2022-10-14T22:41:23.743Z,2.40
2022-10-14T22:43:53.408Z,4.10
2022-10-14T22:46:22.729Z,2.40
2022-10-14T22:48:56.315Z,2.43
2022-10-14T22:54:00.458Z,3.03
2022-10-14T22:56:30.050Z,3.10
2022-10-14T22:58:59.844Z,2.70
2022-10-14T23:01:28.438Z,2.60
2022-10-14T23:03:59.364Z,2.57
2022-10-14T23:06:28.345Z,2.43
2022-10-14T23:08:56.519Z,2.63
2022-10-14T23:11:26.067Z,3.50
2022-10-14T23:13:54.746Z,2.33
2022-10-14T23:16:25.244Z,2.93
2022-10-14T23:18:54.149Z,2.67
2022-10-14T23:21:25.578Z,3.03
2022-10-14T23:23:54.940Z,3.20
2022-10-14T23:26:26.584Z,3.53
2022-10-14T23:28:56.182Z,2.90
2022-10-14T23:31:26.485Z,2.80
2022-10-14T23:33:55.120Z,2.50
2022-10-14T23:36:24.569Z,2.80
2022-10-14T23:38:52.709Z,2.77
2022-10-14T23:41:22.805Z,2.83
2022-10-14T23:43:51.871Z,3.50
2022-10-14T23:46:20.823Z,3.03
2022-10-14T23:48:55.906Z,3.10
2022-10-14T23:51:37.487Z,3.20
2022-10-14T23:54:06.043Z,3.33
2022-10-14T23:56:34.294Z,3.27
2022-10-14T23:59:02.632Z,3.00
